Sakarya, Turkey
Current Conditions -  °F | °C
As of 12:50 PM on Tuesday 21 Oct 2014 (Local Time) from LTBQ Reporting Station
Clear Clear  
Wind Chill: 66°   Ceiling: Unl
Heat Index: 66°   Visibility: 6mi
Dew Point: 41°   Wind: 3mph
Humidity: 40%   Direction: 290°WNW
Pressure: 29.97"   Gusts: NA
Location:  40.75°N, 30.45°E
Report Text: LTBQ 210950Z 29003KT 210V350 CAVOK 19/05 Q1015 NOSIG
Loading
Personal Weather Stations






























Interactive Weather Map
Tropical Storm Tracking
New forecast layout! Learn more

10-Day Weather Forecast

Advertisements
Track Severe Weather on mobile